Bookmark and Share
Track history (hours):
 

Blue Star 1

Last reported at 2014-Apr-17 15:33 UTC. Time now 2014-Apr-17 15:36 UTC.
Position N 37°55' E 023°37'.

Length 176 m; draft 6.5 m.

Type: Passenger vessel. MMSI: 239710000.

NotesDate/timePositionNaut miles runAvg speedWind from/ knotsBaromVisibWave heightAir tempDewpointWater temp
2014-Apr-17 15:33N 37°55' E 023°37'2 1.7
2014-Apr-17 14:33N 37°56' E 023°38'0 0.0
2014-Apr-17 13:33N 37°56' E 023°38'0 0.0
2014-Apr-17 12:33N 37°56' E 023°38'0 0.0
2014-Apr-17 11:30N 37°56' E 023°38'0 0.0
2014-Apr-17 10:33N 37°56' E 023°38'0 0.0
2014-Apr-17 09:33N 37°56' E 023°38'0 0.0
2014-Apr-17 08:32N 37°56' E 023°38'0 0.0
2014-Apr-17 07:33N 37°56' E 023°38'0 0.0
2014-Apr-17 06:32N 37°56' E 023°38'0 0.0
2014-Apr-17 05:32N 37°56' E 023°38'9 8.8
2014-Apr-17 04:33N 37°48' E 023°41'2621.2
2014-Apr-17 03:20N 37°29' E 024°03'1619.7
2014-Apr-17 02:32N 37°19' E 024°18'1818.9
2014-Apr-17 01:34N 37°09' E 024°38'2019.6
2014-Apr-17 00:34N 36°56' E 024°56'1919.5
2014-Apr-16 23:34N 36°42' E 025°12'2019.5
2014-Apr-16 22:33N 36°25' E 025°25'5 4.6
2014-Apr-16 21:34N 36°29' E 025°22'2221.5
2014-Apr-16 20:33N 36°36' E 025°47'2221.9
2014-Apr-16 19:33N 36°43' E 026°13'5 0.3
2014-Apr-16 00:29N 36°44' E 026°19'2222.9
2014-Apr-15 23:33N 36°38' E 025°53'2322.6
2014-Apr-15 22:33N 36°31' E 025°26'8 7.9
2014-Apr-15 21:32N 36°23' E 025°26'1818.1
2014-Apr-15 20:31N 36°39' E 025°14'2221.7
2014-Apr-15 19:31N 36°55' E 024°56'2222.0
2014-Apr-15 18:31N 37°10' E 024°36'2221.7
2014-Apr-15 17:31N 37°22' E 024°13'4220.9
2014-Apr-15 15:31N 37°53' E 023°37'4 4.0
2014-Apr-15 14:33N 37°56' E 023°38'0 0.0
2014-Apr-15 12:33N 37°56' E 023°38'0 0.0
2014-Apr-15 11:33N 37°56' E 023°38'0 0.0
2014-Apr-15 10:33N 37°56' E 023°38'0 0.0
2014-Apr-15 09:33N 37°56' E 023°38'0 0.0
2014-Apr-15 08:33N 37°56' E 023°38'0 0.0
2014-Apr-15 07:33N 37°56' E 023°38'4 1.1
2014-Apr-15 03:33N 37°52' E 023°38'4522.4
2014-Apr-15 01:33N 37°16' E 024°13'2121.3
2014-Apr-15 00:33N 36°60' E 024°29'1919.5
2014-Apr-14 23:34N 36°45' E 024°44'1919.4
2014-Apr-14 22:34N 36°32' E 025°02'1919.2
2014-Apr-14 21:33N 36°23' E 025°24'4 3.6
2014-Apr-14 20:34N 36°27' E 025°22'2019.9
2014-Apr-14 19:34N 36°36' E 025°45'2222.3
2014-Apr-14 18:34N 36°42' E 026°11'35 1.8
2014-Apr-13 22:33N 36°32' E 025°29'9 9.3
2014-Apr-13 21:33N 36°23' E 025°26'1514.9
2014-Apr-13 20:33N 36°36' E 025°16'2221.5
2014-Apr-13 19:33N 36°53' E 024°59'2221.9
2014-Apr-13 18:33N 37°08' E 024°39'2221.8
2014-Apr-13 17:33N 37°19' E 024°16'2821.9
2014-Apr-13 16:15N 37°36' E 023°47'1521.6
2014-Apr-13 15:33N 37°49' E 023°38'7 6.2
2014-Apr-13 14:25N 37°56' E 023°38'0 0.0
2014-Apr-13 13:31N 37°56' E 023°38'0 0.0
2014-Apr-13 12:31N 37°56' E 023°38'0 0.0
2014-Apr-13 11:31N 37°56' E 023°38'0 0.0
2014-Apr-13 10:31N 37°56' E 023°38'0 0.0
2014-Apr-13 09:25N 37°56' E 023°38'0 0.0
2014-Apr-13 08:31N 37°56' E 023°38'0 0.0
2014-Apr-13 07:31N 37°56' E 023°38'0 0.0
2014-Apr-13 06:31N 37°56' E 023°38'0 0.0
2014-Apr-13 05:31N 37°56' E 023°38'0 0.0
2014-Apr-13 04:31N 37°56' E 023°38'0 0.0
2014-Apr-13 03:31N 37°56' E 023°38'0 0.0
2014-Apr-13 02:31N 37°56' E 023°38'0 0.0
2014-Apr-13 01:31N 37°56' E 023°38'0 0.0
2014-Apr-13 00:31N 37°56' E 023°38'0 0.0
2014-Apr-12 23:25N 37°56' E 023°38'0 0.0
2014-Apr-12 22:31N 37°56' E 023°38'0 0.0
2014-Apr-12 21:31N 37°56' E 023°38'0 0.0
2014-Apr-12 20:30N 37°56' E 023°38'0 0.0
2014-Apr-12 19:30N 37°56' E 023°38'0 0.0
2014-Apr-12 18:30N 37°56' E 023°38'0 0.0
2014-Apr-12 17:30N 37°56' E 023°38'0 0.0
2014-Apr-12 16:24N 37°56' E 023°38'0 0.0
2014-Apr-12 15:30N 37°56' E 023°38'0 0.0
2014-Apr-12 14:30N 37°56' E 023°38'0 0.0
2014-Apr-12 13:24N 37°56' E 023°38'0 0.0
2014-Apr-12 12:30N 37°56' E 023°38'0 0.0
2014-Apr-12 11:06N 37°56' E 023°38'0 0.0
2014-Apr-12 10:06N 37°56' E 023°38'0 0.0
2014-Apr-12 09:30N 37°56' E 023°38'0 0.0
2014-Apr-12 08:30N 37°56' E 023°38'0 0.0
2014-Apr-12 07:30N 37°56' E 023°38'0 0.0
2014-Apr-12 06:30N 37°56' E 023°38'0 0.0
2014-Apr-12 05:30N 37°56' E 023°38'6 6.3
2014-Apr-12 04:33N 37°51' E 023°39'4522.0
2014-Apr-12 02:30N 37°18' E 024°19'2021.4
2014-Apr-12 01:33N 37°08' E 024°40'1919.1
2014-Apr-12 00:33N 36°54' E 024°57'1919.0
2014-Apr-11 23:33N 36°41' E 025°14'1919.0
2014-Apr-11 22:33N 36°24' E 025°25'6 6.2
2014-Apr-11 21:33N 36°30' E 025°22'2121.3
2014-Apr-11 20:33N 36°37' E 025°47'2221.7
2014-Apr-11 19:33N 36°43' E 026°14'2 0.1
2014-Apr-11 00:33N 36°44' E 026°16'2322.6
2014-Apr-10 23:33N 36°37' E 025°50'2422.3
2014-Apr-10 22:29N 36°29' E 025°22'7 6.9
2014-Apr-10 21:32N 36°23' E 025°26'1919.4
2014-Apr-10 20:33N 36°30' E 025°03'2221.7
2014-Apr-10 19:33N 36°45' E 024°44'2422.3
2014-Apr-10 18:27N 37°03' E 024°23'4922.2
2014-Apr-10 16:15N 37°40' E 023°43'17 8.9
2014-Apr-10 14:20N 37°56' E 023°38'0 0.0
2014-Apr-10 12:26N 37°56' E 023°38'0 0.0
2014-Apr-10 11:29N 37°56' E 023°38'0 0.0
2014-Apr-10 10:17N 37°56' E 023°38'0 0.0
2014-Apr-10 09:27N 37°56' E 023°38'0 0.0
2014-Apr-10 08:31N 37°56' E 023°38'0 0.0
2014-Apr-10 07:16N 37°56' E 023°38'0 0.0
2014-Apr-10 06:31N 37°56' E 023°38'0 0.0
2014-Apr-10 05:32N 37°56' E 023°38'5 5.6
2014-Apr-10 04:33N 37°51' E 023°39'2221.8
2014-Apr-10 03:32N 37°33' E 023°56'4422.0
2014-Apr-10 01:31N 37°07' E 024°41'1919.5
2014-Apr-10 00:33N 36°54' E 024°58'3110.4
2014-Apr-09 21:33N 36°30' E 025°23'2222.0
2014-Apr-09 20:33N 36°37' E 025°49'2222.2
2014-Apr-09 19:33N 36°43' E 026°16'2 0.1
2014-Apr-09 00:33N 36°43' E 026°18'2222.2
2014-Apr-08 23:34N 36°37' E 025°51'2222.1
2014-Apr-08 22:33N 36°31' E 025°25'8 7.5
2014-Apr-08 21:33N 36°23' E 025°26'1514.6
2014-Apr-08 20:33N 36°28' E 025°09'2222.1
2014-Apr-08 19:33N 36°42' E 024°47'2222.4
2014-Apr-08 18:33N 36°58' E 024°28'2222.2
2014-Apr-08 17:33N 37°14' E 024°09'3022.3
2014-Apr-08 16:11N 37°38' E 023°45'1522.3
2014-Apr-08 15:31N 37°51' E 023°37'5 4.9
2014-Apr-08 14:29N 37°56' E 023°38'0 0.0
2014-Apr-08 13:32N 37°56' E 023°38'0 0.0
2014-Apr-08 12:27N 37°56' E 023°38'0 0.0
2014-Apr-08 11:24N 37°56' E 023°38'0 0.0
2014-Apr-08 10:15N 37°56' E 023°38'0 0.0
2014-Apr-08 09:30N 37°56' E 023°38'0 0.0
2014-Apr-08 08:27N 37°56' E 023°38'0 0.0
2014-Apr-08 07:33N 37°56' E 023°38'0 0.0
2014-Apr-08 06:33N 37°56' E 023°38'0 0.0
2014-Apr-08 05:30N 37°56' E 023°38'6 6.7
2014-Apr-08 04:33N 37°50' E 023°39'4321.4
2014-Apr-08 02:33N 37°20' E 024°17'1919.3
2014-Apr-08 01:33N 37°09' E 024°38'1919.4
2014-Apr-08 00:33N 36°56' E 024°55'2019.6
2014-Apr-07 23:33N 36°42' E 025°13'2019.5
2014-Apr-07 22:33N 36°25' E 025°24'1 0.5
2014-Apr-07 21:33N 36°26' E 025°24'1817.9
2014-Apr-07 20:33N 36°35' E 025°43'2322.6
2014-Apr-07 19:33N 36°41' E 026°10'  

Dump ship's entire track history

sailing weather and tide predictions

Blue Star 1 — SWET — position and weather